Time;durP1;ratioP1;P1;durP2;ratioP2;P2;SDS_P1;SDS_P2;PMS_P1;PMS_P2;Temp;Humidity;BMP_temperature;BMP_pressure;BME280_temperature;BME280_humidity;BME280_pressure;Samples;Min_cycle;Max_cycle;Signal;HPM_P1;HPM_P2
2021/11/28 00:00:09;;;;;;;5.67;3.40;;;2.30;89.40;;;2.50;66.21;95519.72;5051638;28;20429;-48
2021/11/28 00:02:37;;;;;;;6.60;3.23;;;2.30;90.30;;;2.50;66.28;95511.84;5049013;28;20057;-48
2021/11/28 00:05:07;;;;;;;6.77;3.77;;;2.30;89.70;;;2.53;66.33;95520.22;5050603;28;20053;-47
2021/11/28 00:12:48;;;;;;;4.90;2.90;;;2.40;90.00;;;2.58;66.31;95513.66;5049248;28;20053;-46
2021/11/28 00:15:18;;;;;;;6.27;3.17;;;2.40;89.70;;;2.58;66.27;95516.28;5050752;28;20242;-47
2021/11/28 00:17:46;;;;;;;9.33;3.63;;;2.30;90.00;;;2.54;66.22;95510.56;5050051;28;20057;-50
2021/11/28 00:20:16;;;;;;;5.33;3.53;;;2.30;90.30;;;2.56;66.28;95516.47;5049386;28;20057;-47
2021/11/28 00:22:45;;;;;;;6.20;3.57;;;2.40;89.90;;;2.56;66.37;95512.03;5050069;28;20359;-48
2021/11/28 00:25:17;;;;;;;7.43;3.83;;;2.40;89.60;;;2.59;66.10;95512.66;5049486;28;20057;-50
2021/11/28 00:27:48;;;;;;;6.27;3.90;;;2.40;89.70;;;2.59;65.81;95507.41;5049912;28;20060;-49
2021/11/28 00:30:25;;;;;;;9.23;4.07;;;2.40;89.10;;;2.58;65.98;95511.00;5049690;28;20037;-45
2021/11/28 00:32:54;;;;;;;5.50;3.70;;;2.30;89.10;;;2.56;66.02;95508.56;5049200;28;20087;-47
2021/11/28 00:35:22;;;;;;;7.00;3.53;;;2.30;89.10;;;2.55;65.79;95512.19;5045919;28;20251;-46
2021/11/28 00:37:50;;;;;;;5.73;3.83;;;2.40;88.70;;;2.52;65.75;95507.22;5049026;28;20247;-48
2021/11/28 00:40:18;;;;;;;7.57;4.00;;;2.30;88.70;;;2.53;65.68;95509.69;5049952;28;20266;-45
2021/11/28 00:42:46;;;;;;;3.63;2.80;;;2.40;88.70;;;2.55;65.73;95507.72;5057717;28;20502;-47
2021/11/28 00:45:14;;;;;;;5.13;3.10;;;2.40;88.20;;;2.54;65.76;95500.84;5064765;28;20561;-47
2021/11/28 00:47:42;;;;;;;4.23;2.80;;;2.40;88.00;;;2.56;65.71;95512.03;5049149;28;20057;-45
2021/11/28 00:52:40;;;;;;;5.13;2.90;;;2.30;88.50;;;2.56;65.45;95498.88;5049321;28;20250;-46
2021/11/28 00:55:10;;;;;;;3.43;2.40;;;2.30;87.60;;;2.56;65.65;95508.56;5049376;28;20053;-46
2021/11/28 00:57:38;;;;;;;3.27;2.20;;;2.30;88.80;;;2.56;65.35;95508.56;5048008;28;20065;-46
2021/11/28 01:00:10;;;;;;;6.63;3.60;;;2.30;88.20;;;2.55;65.58;95512.19;5047235;28;20063;-46
2021/11/28 01:02:40;;;;;;;6.10;3.00;;;2.40;88.00;;;2.58;65.35;95506.59;5048612;28;20057;-47
2021/11/28 01:05:09;;;;;;;4.73;2.60;;;2.40;88.10;;;2.58;65.64;95525.00;5047423;28;20350;-48
2021/11/28 01:07:38;;;;;;;4.70;2.47;;;2.40;87.90;;;2.63;65.45;95521.88;5049300;28;20053;-47
2021/11/28 01:10:10;;;;;;;3.27;2.20;;;2.50;87.60;;;2.66;65.49;95514.47;5048662;28;20354;-46
2021/11/28 01:12:40;;;;;;;4.20;2.03;;;2.40;88.00;;;2.69;65.57;95522.03;5047888;28;20045;-47
2021/11/28 01:15:11;;;;;;;5.23;2.53;;;2.50;87.30;;;2.74;65.14;95522.34;5046451;28;20049;-47
2021/11/28 01:17:40;;;;;;;4.23;2.97;;;2.50;87.60;;;2.75;64.92;95525.81;5038332;28;20041;-45
2021/11/28 01:20:11;;;;;;;4.10;2.37;;;2.50;87.80;;;2.76;65.10;95530.09;5048617;28;20061;-48
2021/11/28 01:22:39;;;;;;;3.53;2.10;;;2.60;87.40;;;2.76;64.94;95530.09;5049909;28;20254;-47
2021/11/28 01:25:11;;;;;;;4.40;3.17;;;2.60;86.90;;;2.78;64.93;95532.56;5049487;28;20059;-45
2021/11/28 01:27:41;;;;;;;5.10;2.33;;;2.60;87.70;;;2.80;65.43;95541.91;5039481;28;20059;-46
2021/11/28 01:30:11;;;;;;;5.23;2.80;;;2.60;87.80;;;2.81;64.84;95538.31;5048417;28;20065;-45
2021/11/28 01:32:40;;;;;;;3.80;2.00;;;2.60;87.60;;;2.81;64.96;95540.94;5048260;28;20280;-49
2021/11/28 01:35:14;;;;;;;3.53;2.40;;;2.50;88.10;;;2.78;65.05;95541.25;5065116;28;20059;-48
2021/11/28 01:37:44;;;;;;;4.78;2.42;;;2.50;88.00;;;2.76;65.43;95545.84;5047495;28;20052;-40
2021/11/28 01:40:18;;;;;;;3.17;2.40;;;2.40;88.00;;;2.76;65.27;95548.47;5047395;28;20057;-40
2021/11/28 01:43:00;;;;;;;5.05;2.28;;;2.50;88.30;;;2.76;64.90;95556.38;5048617;28;20052;-41
2021/11/28 01:45:32;;;;;;;3.35;2.13;;;2.50;88.40;;;2.74;64.97;95550.44;5028931;28;20057;-40
2021/11/28 01:48:05;;;;;;;4.27;2.40;;;2.50;88.30;;;2.75;65.08;95550.28;5041546;28;20049;-40
2021/11/28 01:50:36;;;;;;;3.43;2.13;;;2.50;88.20;;;2.77;64.87;95555.34;5048160;28;20056;-40
2021/11/28 01:53:15;;;;;;;4.73;2.70;;;2.50;88.40;;;2.79;65.38;95558.66;5041881;28;20369;-40
2021/11/28 01:55:44;;;;;;;4.67;2.20;;;2.50;88.30;;;2.81;65.32;95556.69;5062668;28;20065;-40
2021/11/28 01:58:19;;;;;;;4.87;2.23;;;2.50;88.30;;;2.83;65.27;95567.88;5046482;28;20049;-40
2021/11/28 02:00:57;;;;;;;3.27;1.83;;;2.50;88.50;;;2.85;65.22;95557.16;5037995;28;20056;-40
2021/11/28 02:03:27;;;;;;;5.63;2.70;;;2.50;88.50;;;2.85;65.19;95560.63;5047039;28;20055;-40
2021/11/28 02:05:59;;;;;;;4.17;2.20;;;2.60;88.50;;;2.88;65.09;95557.66;5040943;28;20243;-41
2021/11/28 02:08:28;;;;;;;2.25;1.73;;;2.60;88.30;;;2.90;65.34;95554.88;5048720;28;20091;-40
2021/11/28 02:10:56;;;;;;;3.33;2.00;;;2.60;88.00;;;2.93;64.82;95550.13;5048348;28;20367;-40
2021/11/28 02:13:33;;;;;;;4.17;2.07;;;2.70;88.10;;;2.96;65.12;95552.41;5043873;28;20060;-40
2021/11/28 02:16:09;;;;;;;3.60;2.10;;;2.70;88.20;;;2.98;65.34;95557.50;5042541;28;20052;-41
2021/11/28 02:18:38;;;;;;;3.57;2.10;;;2.70;88.00;;;2.99;65.33;95551.28;5046916;28;20721;-40
2021/11/28 02:21:09;;;;;;;4.80;2.10;;;2.60;87.90;;;2.98;65.38;95554.06;5047349;28;20057;-40
2021/11/28 02:23:39;;;;;;;3.77;2.30;;;2.60;88.30;;;2.93;64.96;95555.38;5046665;28;20048;-40
2021/11/28 02:26:14;;;;;;;5.13;2.23;;;2.50;88.40;;;2.92;65.03;95552.91;5041657;28;20131;-40
2021/11/28 02:28:46;;;;;;;3.67;2.10;;;2.50;88.50;;;2.86;65.17;95553.56;5031615;28;20053;-41
2021/11/28 02:31:15;;;;;;;3.37;2.13;;;2.40;89.00;;;2.81;64.97;95548.81;5047771;28;20053;-40
2021/11/28 02:33:45;;;;;;;3.60;2.30;;;2.40;88.50;;;2.79;64.79;95547.31;5039634;28;20056;-40
2021/11/28 02:36:13;;;;;;;3.93;2.50;;;2.50;88.80;;;2.74;65.16;95548.63;5046485;28;20048;-40
2021/11/28 02:38:42;;;;;;;3.40;2.37;;;2.50;88.50;;;2.75;65.28;95546.81;5046706;28;20107;-40
2021/11/28 02:41:11;;;;;;;5.17;2.10;;;2.50;88.50;;;2.78;65.32;95543.06;5043208;28;20051;-40
2021/11/28 02:43:40;;;;;;;4.77;2.07;;;2.50;88.40;;;2.80;65.00;95548.97;5062755;28;20295;-40
2021/11/28 02:46:11;;;;;;;3.87;2.50;;;2.50;88.30;;;2.83;65.29;95546.84;5046966;28;20048;-40
2021/11/28 02:48:40;;;;;;;3.93;2.20;;;2.50;88.30;;;2.81;65.00;95548.81;5044619;28;20055;-40
2021/11/28 02:51:08;;;;;;;4.67;2.37;;;2.50;88.80;;;2.81;65.01;95543.56;5047234;28;20061;-40
2021/11/28 02:53:37;;;;;;;8.30;2.40;;;2.40;88.90;;;2.80;65.15;95539.28;5047203;28;20049;-40
2021/11/28 02:56:05;;;;;;;5.27;2.40;;;2.50;89.10;;;2.81;65.29;95543.56;5040962;28;20055;-40
2021/11/28 02:58:35;;;;;;;7.30;2.30;;;2.50;89.30;;;2.83;65.19;95551.25;5046593;28;20055;-40
2021/11/28 03:01:16;;;;;;;5.83;2.67;;;2.50;89.00;;;2.82;65.31;95550.44;5041122;28;20049;-40
2021/11/28 03:04:13;;;;;;;6.30;2.63;;;2.50;88.40;;;2.80;65.23;95544.53;4986127;28;20050;-40
2021/11/28 03:06:41;;;;;;;4.70;2.63;;;2.50;89.30;;;2.77;65.22;95547.47;5047444;28;20375;-40
2021/11/28 03:09:09;;;;;;;3.60;2.53;;;2.40;89.20;;;2.76;65.51;95557.19;5041949;28;20079;-41
2021/11/28 03:11:38;;;;;;;3.80;2.20;;;2.30;89.70;;;2.76;65.49;95557.19;5044526;28;20061;-41
2021/11/28 03:14:06;;;;;;;3.67;2.37;;;2.40;89.80;;;2.74;65.28;95556.53;5047291;28;20052;-41
2021/11/28 03:16:33;;;;;;;4.03;2.33;;;2.30;90.20;;;2.75;65.25;95546.81;5047523;28;20258;-40
2021/11/28 03:19:03;;;;;;;4.50;2.20;;;2.40;90.10;;;2.76;65.42;95545.84;5041981;28;20052;-40
2021/11/28 03:21:34;;;;;;;5.23;2.57;;;2.40;89.50;;;2.78;65.46;95553.56;5046266;28;20044;-40
2021/11/28 03:24:06;;;;;;;6.13;2.70;;;2.50;89.60;;;2.76;65.14;95548.47;5039756;28;20069;-40
2021/11/28 03:26:41;;;;;;;6.43;2.43;;;2.50;89.20;;;2.79;65.43;95545.50;5046959;28;20257;-43
2021/11/28 03:29:14;;;;;;;5.00;2.00;;;2.50;89.10;;;2.78;65.56;95541.25;5041942;28;20067;-40
2021/11/28 03:32:02;;;;;;;4.63;2.20;;;2.50;89.20;;;2.77;65.55;95539.59;5047033;28;20073;-40
2021/11/28 03:34:49;;;;;;;3.03;2.50;;;2.50;89.40;;;2.77;64.90;95544.84;5043989;28;20404;-40
2021/11/28 03:37:24;;;;;;;6.77;2.60;;;2.50;89.30;;;2.79;65.23;95539.44;5059952;28;20063;-41
2021/11/28 03:39:53;;;;;;;6.90;2.70;;;2.50;89.40;;;2.78;65.22;95535.19;5043984;28;20045;-40
2021/11/28 03:42:28;;;;;;;4.83;3.00;;;2.60;89.30;;;2.82;65.95;95534.69;5044824;28;20331;-40
2021/11/28 03:44:57;;;;;;;4.97;2.20;;;2.60;89.30;;;2.87;65.40;95531.53;5039101;28;20356;-40
2021/11/28 03:47:24;;;;;;;6.07;3.07;;;2.60;89.20;;;2.89;65.26;95533.03;5045660;28;20255;-41
2021/11/28 03:50:00;;;;;;;6.10;3.10;;;2.60;89.30;;;2.91;65.46;95530.25;5058206;28;20053;-40
2021/11/28 03:52:30;;;;;;;4.67;2.40;;;2.70;89.30;;;2.93;65.81;95528.28;5048855;28;20041;-41
2021/11/28 03:54:58;;;;;;;4.33;2.37;;;2.70;89.20;;;2.94;65.62;95528.09;5043108;28;20320;-41
2021/11/28 03:57:30;;;;;;;9.73;3.80;;;2.70;89.40;;;2.97;65.62;95532.22;5050244;28;20284;-41
2021/11/28 03:59:58;;;;;;;7.83;3.50;;;2.70;89.40;;;2.97;65.63;95526.97;5050523;28;20053;-40
2021/11/28 04:02:27;;;;;;;7.10;2.60;;;2.70;89.50;;;2.98;65.78;95527.78;5063578;28;20416;-40
2021/11/28 04:04:55;;;;;;;4.10;2.83;;;2.70;89.60;;;2.94;65.43;95525.47;5057804;28;20048;-41
2021/11/28 04:07:28;;;;;;;4.33;2.70;;;2.60;89.30;;;2.92;65.56;95526.63;5049573;28;20446;-40
2021/11/28 04:09:59;;;;;;;3.67;2.37;;;2.60;89.80;;;2.85;65.47;95525.63;5044674;28;20385;-41
2021/11/28 04:12:27;;;;;;;7.73;3.17;;;2.50;89.60;;;2.84;65.70;95521.38;5049236;28;20067;-40
2021/11/28 04:14:57;;;;;;;3.63;2.23;;;2.50;90.30;;;2.81;65.29;95519.06;5043352;28;20045;-41
2021/11/28 04:17:27;;;;;;;6.03;2.83;;;2.50;90.60;;;2.82;65.50;95528.59;5047962;28;20361;-40
2021/11/28 04:20:03;;;;;;;4.77;2.60;;;2.40;91.00;;;2.78;65.64;95530.75;5044055;28;20057;-40
2021/11/28 04:22:30;;;;;;;3.77;2.37;;;2.40;91.00;;;2.76;65.87;95520.38;5049228;28;20053;-40
2021/11/28 04:25:00;;;;;;;4.03;2.40;;;2.40;91.00;;;2.83;65.74;95524.97;5058867;28;20061;-40
2021/11/28 04:27:28;;;;;;;4.27;2.53;;;2.50;91.10;;;2.84;65.74;95527.44;5064989;28;20060;-40
2021/11/28 04:29:56;;;;;;;4.43;2.73;;;2.50;90.90;;;2.86;65.79;95530.72;5058745;28;20052;-41
2021/11/28 04:32:25;;;;;;;4.30;2.30;;;2.50;91.10;;;2.90;65.91;95525.97;5048266;28;20059;-41
2021/11/28 04:34:58;;;;;;;3.80;2.53;;;2.50;91.10;;;2.91;65.73;95530.25;5042082;28;20049;-40
2021/11/28 04:37:27;;;;;;;4.03;2.30;;;2.60;90.90;;;2.91;65.95;95530.25;5048425;28;20415;-40
2021/11/28 04:39:56;;;;;;;5.33;2.47;;;2.50;91.00;;;2.93;65.90;95533.53;5048994;28;20056;-40
2021/11/28 04:42:24;;;;;;;5.90;1.97;;;2.50;91.10;;;2.95;66.19;95531.56;5030437;28;20071;-40
2021/11/28 04:44:53;;;;;;;3.40;2.30;;;2.60;90.90;;;2.96;65.77;95526.13;5041948;28;20291;-41
2021/11/28 04:47:21;;;;;;;4.33;2.57;;;2.60;90.80;;;2.99;66.00;95527.63;5046934;28;20061;-41
2021/11/28 04:50:12;;;;;;;7.20;3.83;;;2.60;90.70;;;3.00;65.94;95531.88;5048175;28;20063;-40
2021/11/28 04:52:42;;;;;;;4.87;2.50;;;2.60;90.60;;;2.99;65.67;95542.56;5031569;28;20239;-41
2021/11/28 04:55:12;;;;;;;3.40;2.57;;;2.60;90.80;;;3.01;66.02;95537.97;5047759;28;20049;-40
2021/11/28 04:57:42;;;;;;;3.73;2.47;;;2.60;91.20;;;3.01;65.59;95535.34;5047537;28;20327;-40
2021/11/28 05:00:21;;;;;;;4.83;3.03;;;2.70;91.20;;;3.03;66.06;95539.44;5063154;28;20533;-40
2021/11/28 05:02:56;;;;;;;4.53;2.40;;;2.70;90.80;;;3.04;65.87;95529.72;5046474;28;20063;-40
2021/11/28 05:05:26;;;;;;;4.47;3.50;;;2.70;90.60;;;3.04;65.63;95535.00;5049114;28;20067;-41
2021/11/28 05:07:55;;;;;;;6.13;2.87;;;2.70;90.50;;;3.02;65.58;95536.97;5048951;28;20067;-40
2021/11/28 05:10:25;;;;;;;5.27;2.60;;;2.70;90.70;;;3.02;65.72;95540.41;5046465;28;20052;-40
2021/11/28 05:12:59;;;;;;;4.53;2.37;;;2.60;90.30;;;3.00;65.84;95534.50;5043330;28;20049;-40
2021/11/28 05:15:28;;;;;;;5.33;2.90;;;2.60;90.70;;;3.02;65.51;95532.53;5047517;28;20252;-40
2021/11/28 05:18:18;;;;;;;4.53;2.17;;;2.60;90.40;;;2.98;65.54;95536.47;5045277;28;20228;-40
2021/11/28 05:20:55;;;;;;;5.40;3.17;;;2.60;90.30;;;2.95;65.81;95534.19;5042426;28;20333;-40
2021/11/28 05:23:24;;;;;;;5.47;2.40;;;2.60;90.30;;;2.94;65.64;95530.72;5063021;28;20059;-41
2021/11/28 05:25:52;;;;;;;6.10;2.63;;;2.60;90.70;;;2.95;65.61;95537.63;5041499;28;20406;-40
2021/11/28 05:28:26;;;;;;;4.53;2.20;;;2.60;90.70;;;2.97;66.18;95534.84;5063126;28;20068;-40
2021/11/28 05:30:54;;;;;;;2.60;1.93;;;2.60;90.50;;;2.98;65.44;95536.47;5042419;28;20064;-40
2021/11/28 05:33:41;;;;;;;3.53;1.90;;;2.60;90.30;;;2.98;65.59;95531.22;5052958;28;20044;-41
2021/11/28 05:36:38;;;;;;;5.53;3.57;;;2.60;90.10;;;2.94;65.69;95527.28;5048469;28;20052;-40
2021/11/28 05:39:09;;;;;;;4.80;2.27;;;2.60;90.20;;;2.94;65.72;95527.28;5043602;28;20262;-40
2021/11/28 05:41:37;;;;;;;4.13;2.60;;;2.60;90.20;;;2.92;65.70;95531.88;5046576;28;20049;-40
2021/11/28 05:44:05;;;;;;;5.37;4.50;;;2.50;90.40;;;2.93;65.68;95534.34;5041076;28;20055;-41
2021/11/28 05:46:43;;;;;;;4.77;2.50;;;2.60;90.60;;;2.90;66.17;95539.13;5045558;28;20258;-41
2021/11/28 05:49:24;;;;;;;7.63;4.27;;;2.50;90.50;;;2.89;65.77;95535.66;5064856;28;20061;-40
2021/11/28 05:52:13;;;;;;;5.33;3.10;;;2.50;90.70;;;2.90;65.85;95534.66;5042793;28;20079;-41
2021/11/28 05:54:41;;;;;;;4.10;2.60;;;2.50;90.80;;;2.89;65.93;95532.19;5046141;28;20060;-40
2021/11/28 05:57:09;;;;;;;4.90;2.67;;;2.50;90.70;;;2.84;65.55;95531.88;5046893;28;20059;-41
2021/11/28 05:59:37;;;;;;;4.00;2.30;;;2.50;90.60;;;2.85;65.76;95533.50;5046452;28;20055;-41
2021/11/28 06:02:07;;;;;;;9.77;2.50;;;2.50;91.10;;;2.88;66.18;95535.81;5041747;28;20056;-41
2021/11/28 06:04:38;;;;;;;4.50;2.03;;;2.50;91.20;;;2.88;66.30;95534.00;5064004;28;20055;-40
2021/11/28 06:07:24;;;;;;;4.27;2.23;;;2.50;91.00;;;2.89;65.81;95540.09;5051302;28;20051;-41
2021/11/28 06:09:52;;;;;;;6.30;2.60;;;2.50;91.10;;;2.89;66.05;95542.72;5048247;28;20063;-41
2021/11/28 06:12:21;;;;;;;3.90;2.97;;;2.50;91.60;;;2.87;65.79;95540.28;5060760;28;20049;-41
2021/11/28 06:14:49;;;;;;;3.60;2.03;;;2.50;91.30;;;2.86;65.80;95538.63;5039966;28;20244;-40
2021/11/28 06:17:21;;;;;;;5.27;2.50;;;2.50;91.40;;;2.85;66.01;95549.28;5045257;28;20071;-41
2021/11/28 06:19:52;;;;;;;3.27;2.40;;;2.40;91.70;;;2.82;66.38;95545.19;5048124;28;20045;-41
2021/11/28 06:22:46;;;;;;;4.60;2.75;;;2.40;91.70;;;2.80;66.30;95551.59;5045713;28;20426;-41
2021/11/28 06:25:14;;;;;;;5.77;2.30;;;2.30;92.00;;;2.78;65.97;95543.88;5043231;28;20052;-41
2021/11/28 06:27:58;;;;;;;3.55;2.45;;;2.30;92.10;;;2.77;66.14;95547.47;5040483;28;20045;-41
2021/11/28 06:30:26;;;;;;;3.40;2.27;;;2.30;92.00;;;2.76;65.97;95557.19;5047020;28;20052;-41
2021/11/28 06:33:16;;;;;;;4.03;2.60;;;2.30;92.10;;;2.76;66.07;95564.25;5025893;28;20362;-41
2021/11/28 06:35:57;;;;;;;3.87;2.77;;;2.30;92.40;;;2.75;65.87;95558.19;5051544;28;20355;-41
2021/11/28 06:38:51;;;;;;;4.23;2.57;;;2.30;92.70;;;2.80;66.31;95552.41;5046091;28;20057;-41
2021/11/28 06:41:27;;;;;;;5.17;2.40;;;2.40;92.50;;;2.79;66.27;95549.94;5048484;28;20033;-41
2021/11/28 06:43:56;;;;;;;3.83;2.20;;;2.30;92.20;;;2.75;66.11;95552.91;5047812;28;20045;-41
2021/11/28 06:46:25;;;;;;;3.30;2.40;;;2.30;92.40;;;2.73;66.38;95552.25;5059615;28;20366;-41
2021/11/28 06:48:53;;;;;;;6.53;2.97;;;2.30;92.50;;;2.72;66.28;95563.75;5039402;28;20059;-41
2021/11/28 06:51:39;;;;;;;5.07;2.90;;;2.30;92.70;;;2.73;66.33;95562.78;5048577;28;20036;-41
2021/11/28 06:54:17;;;;;;;5.93;3.37;;;2.30;92.60;;;2.73;66.36;95556.69;5043176;28;20051;-41
2021/11/28 06:56:52;;;;;;;4.67;2.90;;;2.30;92.80;;;2.74;66.27;95553.06;5055010;28;20044;-41
2021/11/28 06:59:21;;;;;;;4.53;3.10;;;2.30;92.40;;;2.74;66.44;95553.88;5049026;28;20045;-41
2021/11/28 07:01:50;;;;;;;5.37;3.20;;;2.30;92.50;;;2.74;66.28;95560.97;5039061;28;20048;-41
2021/11/28 07:04:18;;;;;;;3.77;2.53;;;2.30;92.30;;;2.78;66.81;95564.09;5046972;28;20053;-40
2021/11/28 07:07:10;;;;;;;5.17;2.87;;;2.40;92.10;;;2.80;66.46;95562.13;5039421;28;20465;-41
2021/11/28 07:09:46;;;;;;;3.37;2.10;;;2.40;91.50;;;2.80;66.50;95562.94;5055884;28;20064;-41
2021/11/28 07:12:17;;;;;;;7.07;2.77;;;2.40;91.60;;;2.80;66.55;95565.56;5045854;28;20342;-41
2021/11/28 07:14:44;;;;;;;4.63;2.87;;;2.40;91.70;;;2.82;66.15;95568.03;5038220;28;20056;-41
2021/11/28 07:17:20;;;;;;;6.90;3.13;;;2.40;91.60;;;2.82;66.37;95571.47;5047157;28;20053;-40
2021/11/28 07:19:49;;;;;;;4.07;2.73;;;2.50;91.40;;;2.85;66.24;95570.31;5039031;28;20067;-41
2021/11/28 07:22:21;;;;;;;3.63;2.70;;;2.50;91.10;;;2.88;66.36;95573.44;5029790;28;20045;-41
2021/11/28 07:24:52;;;;;;;4.43;2.37;;;2.60;91.80;;;2.89;66.23;95584.75;5037799;28;20060;-41
2021/11/28 07:27:20;;;;;;;4.17;3.00;;;2.50;90.60;;;2.88;65.92;95583.13;5048556;28;20071;-41
2021/11/28 07:29:48;;;;;;;4.87;3.00;;;2.50;90.80;;;2.87;66.36;95587.59;5043703;28;20056;-41
2021/11/28 07:32:17;;;;;;;6.23;2.97;;;2.50;90.80;;;2.87;66.06;95584.94;5065919;28;20059;-41
2021/11/28 07:35:14;;;;;;;3.60;2.57;;;2.50;90.60;;;2.90;65.97;95586.41;5067177;28;20255;-41
2021/11/28 07:37:58;;;;;;;4.95;2.90;;;2.50;90.70;;;2.89;66.23;95585.59;5047101;28;20056;-41
2021/11/28 07:40:26;;;;;;;4.93;2.90;;;2.50;90.50;;;2.90;65.86;95581.16;5052685;28;20063;-41
2021/11/28 07:43:23;;;;;;;5.57;2.77;;;2.50;90.40;;;2.91;66.07;95588.06;5027279;28;20057;-42
2021/11/28 07:46:10;;;;;;;4.00;2.67;;;2.60;90.80;;;2.91;66.10;95581.00;5049602;28;20047;-42
2021/11/28 07:48:57;;;;;;;3.93;2.80;;;2.60;90.50;;;2.92;66.01;95577.38;5042801;28;20339;-42
2021/11/28 07:51:27;;;;;;;6.00;3.10;;;2.60;90.50;;;2.92;66.15;95584.44;5047516;28;20393;-42
2021/11/28 07:53:56;;;;;;;7.53;3.33;;;2.60;90.20;;;2.94;66.06;95579.84;5048169;28;20071;-42
2021/11/28 07:56:29;;;;;;;4.77;2.70;;;2.60;90.80;;;2.97;65.82;95582.16;5046336;28;20271;-42
2021/11/28 07:59:16;;;;;;;5.90;3.17;;;2.60;90.80;;;3.02;66.31;95579.03;5053491;28;20234;-42
2021/11/28 08:01:47;;;;;;;4.90;3.23;;;2.70;90.50;;;3.03;66.16;95578.88;5042501;28;20057;-42
2021/11/28 08:04:55;;;;;;;4.03;3.00;;;2.70;90.20;;;3.05;65.95;95591.84;4987927;28;20339;-42
2021/11/28 08:07:42;;;;;;;49.93;35.17;;;2.70;90.10;;;3.08;66.01;95588.88;4990219;28;20053;-42
2021/11/28 08:10:46;;;;;;;54.22;33.55;;;2.70;90.00;;;3.07;66.24;95584.63;5031982;28;20075;-42
2021/11/28 08:13:14;;;;;;;33.40;20.23;;;2.70;90.10;;;3.08;66.11;95592.34;5048524;28;20370;-42
2021/11/28 08:15:42;;;;;;;29.67;20.30;;;2.80;90.90;;;3.12;66.24;95596.28;5047337;28;20049;-42
2021/11/28 08:18:10;;;;;;;10.70;6.50;;;2.80;90.00;;;3.13;66.15;95600.53;5048517;28;20053;-42
2021/11/28 08:20:38;;;;;;;31.37;18.73;;;2.80;89.50;;;3.15;66.17;95597.75;5050094;28;20060;-42
2021/11/28 08:23:06;;;;;;;89.30;44.37;;;2.80;89.90;;;3.18;65.93;95605.34;5048243;28;20369;-42
2021/11/28 08:25:34;;;;;;;38.17;24.57;;;2.80;89.70;;;3.22;65.62;95603.16;5048885;28;20091;-42
2021/11/28 08:28:08;;;;;;;55.03;34.80;;;2.80;89.70;;;3.23;65.72;95603.00;5048490;28;20045;-42
2021/11/28 08:30:38;;;;;;;57.60;29.93;;;2.80;89.60;;;3.23;65.80;95610.91;5048723;28;20290;-42
2021/11/28 08:33:07;;;;;;;90.33;40.57;;;2.80;89.50;;;3.22;66.07;95611.91;5047821;28;20657;-42
2021/11/28 08:35:53;;;;;;;25.93;12.90;;;2.80;89.60;;;3.21;65.39;95619.94;5048321;28;20292;-47
2021/11/28 08:38:20;;;;;;;22.70;9.43;;;2.80;89.60;;;3.22;66.22;95621.56;5046735;28;20057;-50
2021/11/28 08:40:49;;;;;;;13.80;6.83;;;2.80;89.60;;;3.23;65.50;95621.41;5049626;28;20049;-47
2021/11/28 08:43:17;;;;;;;11.47;5.77;;;2.80;89.60;;;3.20;65.71;95631.44;5044782;28;20057;-47
2021/11/28 08:45:45;;;;;;;9.43;3.93;;;2.80;89.80;;;3.22;65.53;95632.94;5048379;28;20071;-49
2021/11/28 08:48:13;;;;;;;5.17;3.27;;;2.80;89.80;;;3.23;65.74;95634.56;5047790;28;20056;-49
2021/11/28 08:50:41;;;;;;;3.43;2.93;;;2.90;89.70;;;3.26;66.12;95634.25;5038865;28;20063;-51
2021/11/28 08:53:10;;;;;;;4.27;2.77;;;2.90;89.80;;;3.30;66.10;95634.75;5047331;28;20049;-50
2021/11/28 08:55:38;;;;;;;6.23;2.97;;;3.00;89.60;;;3.32;65.76;95632.78;5047536;28;20052;-47
2021/11/28 08:58:06;;;;;;;5.40;4.53;;;3.00;89.20;;;3.34;65.20;95631.59;5048784;28;20439;-47
2021/11/28 09:00:34;;;;;;;5.50;3.30;;;3.00;89.10;;;3.38;65.97;95631.28;5037007;28;20067;-46
2021/11/28 09:03:02;;;;;;;9.13;5.43;;;3.10;89.30;;;3.40;65.57;95638.03;5038309;28;20056;-44
2021/11/28 09:05:30;;;;;;;6.13;4.10;;;3.10;88.70;;;3.41;65.51;95646.72;5035700;28;20048;-47
2021/11/28 09:08:00;;;;;;;30.43;11.90;;;3.10;88.80;;;3.41;65.93;95655.44;5038325;28;20050;-45
2021/11/28 09:10:29;;;;;;;9.13;4.17;;;3.10;88.90;;;3.41;65.28;95644.09;5036260;28;20063;-47
2021/11/28 09:12:58;;;;;;;5.80;3.27;;;3.10;88.90;;;3.40;65.68;95653.00;5004128;28;20049;-45
2021/11/28 09:15:28;;;;;;;6.60;3.53;;;3.10;89.10;;;3.46;65.42;95654.94;5034097;28;20053;-46
2021/11/28 09:18:06;;;;;;;5.83;4.07;;;3.20;89.10;;;3.52;65.73;95655.09;5036642;28;20049;-46
2021/11/28 09:20:37;;;;;;;7.07;4.57;;;3.30;89.70;;;3.55;65.60;95659.22;5038455;28;20279;-47
2021/11/28 09:25:36;;;;;;;13.97;6.40;;;3.30;88.70;;;3.62;65.57;95659.38;5047218;28;20065;-46
2021/11/28 09:28:06;;;;;;;8.00;4.13;;;3.40;88.70;;;3.66;65.45;95658.84;5035156;28;20053;-46
2021/11/28 09:30:36;;;;;;;7.33;4.43;;;3.50;88.10;;;3.67;65.22;95657.06;5027140;28;20200;-48
2021/11/28 09:33:05;;;;;;;6.07;3.40;;;3.40;88.00;;;3.70;65.60;95654.09;5026607;28;20646;-47
2021/11/28 09:35:34;;;;;;;5.13;3.60;;;3.40;87.90;;;3.70;65.29;95654.09;5026624;28;20045;-45
2021/11/28 09:38:03;;;;;;;4.30;2.83;;;3.40;87.90;;;3.71;65.38;95656.56;5027768;28;20064;-45
2021/11/28 09:40:31;;;;;;;5.60;3.23;;;3.40;87.90;;;3.73;65.25;95659.03;5029532;28;20259;-45
2021/11/28 09:43:00;;;;;;;5.37;4.00;;;3.40;88.30;;;3.75;65.60;95659.69;5028789;28;20057;-47
2021/11/28 09:45:30;;;;;;;5.57;3.40;;;3.50;88.60;;;3.78;65.58;95658.53;5028022;28;20360;-45
2021/11/28 09:47:58;;;;;;;16.83;4.50;;;3.50;88.50;;;3.80;65.51;95660.00;5020907;28;20278;-48
2021/11/28 09:50:27;;;;;;;7.53;4.10;;;3.50;88.10;;;3.81;65.04;95658.19;5028146;28;20057;-46
2021/11/28 09:52:56;;;;;;;5.27;3.37;;;3.50;88.00;;;3.82;65.37;95655.41;5028832;28;20216;-47
2021/11/28 09:55:27;;;;;;;5.70;3.53;;;3.50;87.90;;;3.85;64.82;95648.97;5027586;28;20063;-47
2021/11/28 09:57:57;;;;;;;5.33;3.00;;;3.60;87.90;;;3.86;65.37;95653.25;5027654;28;20051;-46
2021/11/28 10:00:26;;;;;;;7.67;4.10;;;3.60;87.90;;;3.84;64.87;95645.53;5027030;28;20043;-46
2021/11/28 10:02:54;;;;;;;4.40;3.00;;;3.60;87.90;;;3.83;65.23;95646.50;5027313;28;20671;-49
2021/11/28 10:05:22;;;;;;;6.47;3.80;;;3.60;87.90;;;3.85;65.02;95641.06;5027665;28;20063;-44
2021/11/28 10:07:51;;;;;;;5.33;3.40;;;3.60;88.10;;;3.85;65.22;95639.25;5026692;28;20250;-47
2021/11/28 10:10:20;;;;;;;5.17;3.27;;;3.60;87.70;;;3.85;65.39;95644.53;5027872;28;20053;-45
2021/11/28 10:12:53;;;;;;;4.87;3.17;;;3.60;88.30;;;3.87;65.04;95641.72;5028345;28;20057;-45
2021/11/28 10:15:28;;;;;;;4.90;3.73;;;3.60;87.90;;;3.88;64.98;95640.75;5027077;28;20289;-46
2021/11/28 10:17:58;;;;;;;6.67;3.67;;;3.60;88.30;;;3.85;65.52;95634.00;5019590;28;20107;-45
2021/11/28 10:20:28;;;;;;;4.30;3.17;;;3.60;87.60;;;3.80;64.50;95633.69;5027998;28;20327;-50
2021/11/28 10:22:56;;;;;;;3.93;2.73;;;3.50;87.60;;;3.82;65.04;95638.75;5027841;28;20059;-44
2021/11/28 10:25:30;;;;;;;5.23;3.40;;;3.50;88.10;;;3.88;65.02;95638.13;5028902;28;20057;-45
2021/11/28 10:28:05;;;;;;;8.02;4.38;;;3.60;88.40;;;3.90;65.68;95636.13;5025137;28;20359;-45
2021/11/28 10:30:45;;;;;;;4.77;3.90;;;3.60;88.20;;;3.92;65.66;95631.53;5027620;28;20049;-48
2021/11/28 10:33:20;;;;;;;4.37;3.87;;;3.60;88.40;;;3.91;65.41;95629.88;5027968;28;20049;-46
2021/11/28 10:36:08;;;;;;;8.23;4.87;;;3.60;88.20;;;3.93;65.25;95638.41;5035379;28;20049;-45
2021/11/28 10:38:40;;;;;;;7.83;5.40;;;3.70;88.90;;;3.95;65.42;95628.53;5026664;28;20056;-50
2021/11/28 10:41:28;;;;;;;9.73;6.90;;;3.70;89.00;;;3.94;65.52;95627.72;5027385;28;20102;-46
2021/11/28 10:43:58;;;;;;;8.50;5.90;;;3.70;89.20;;;3.96;65.64;95624.09;5026844;28;20251;-45
2021/11/28 10:46:32;;;;;;;9.40;5.50;;;3.70;89.60;;;3.94;65.94;95621.63;5026145;28;20065;-45
2021/11/28 10:49:18;;;;;;;6.80;4.57;;;3.70;89.90;;;3.97;65.87;95620.47;5027449;28;20049;-44
2021/11/28 10:51:51;;;;;;;10.20;5.57;;;3.70;89.60;;;3.97;65.12;95623.91;5027091;28;20075;-46
2021/11/28 10:54:36;;;;;;;7.43;5.13;;;3.70;90.00;;;3.97;65.52;95625.75;5026619;28;20057;-45
2021/11/28 10:57:07;;;;;;;6.73;4.83;;;3.60;89.90;;;3.97;65.14;95620.47;5020697;28;20064;-45
2021/11/28 10:59:38;;;;;;;8.00;5.37;;;3.60;89.80;;;3.97;66.19;95623.91;5026276;28;20061;-45
2021/11/28 11:02:19;;;;;;;7.20;4.90;;;3.60;90.00;;;3.98;66.07;95612.41;5026599;28;20363;-45
2021/11/28 11:04:48;;;;;;;6.70;4.67;;;3.70;89.80;;;3.97;65.31;95616.00;5025924;28;20052;-46